Meteo18 Weather Cam more information Meteo18 Weather Cam


Thunder radar more information blitzortung!


Rain radar more information rain snow radar



Select another period ( hide this area )

Units Period Custom range Directly to
Metric English Both
Daily Weekly Monthly Yearly
use both date-selectors for a custom range
previous Day
With this date

WeatherUnderground graphs for this period ( click here )


Daily Summary for Monday 19 November 2018
Time Temp. ( °C ) Dew pt. ( °C ) Wind ( km/h ) from Gust ( km/h ) Pressure ( hPa ) Humid.( % ) Rainrate ( cm )
High1,7 -0,7 13,0 NE ( 33/109 ) 14,5 1016,1 87 -
Average1,2 -1,0 5,0 NE #6/22 10,3 1015,3 85 -
Low1,0 -1,1 -   4,8 1014,8 84 -
Daily Tabular details for Monday 19 November 2018
Time Temp. ( °C ) Dew pt. ( °C ) Wind ( km/h ) from Gust ( km/h ) Pressure ( hPa ) Humid.( % ) Rainrate ( cm )
00:04 1,7 -0,7 1,4 ENE 6,4 1016,1 84 -
00:08 1,4 -0,8 4,7 North 11,3 1016,1 85 -
00:14 1,2 -1,0   Calm 4,8 1016,1 85 -
00:18 1,1 -1,0 6,4 NNW 6,4 1015,8 86 -
00:24 1,1 -1,0 4,7 North 11,3 1015,5 86 -
00:28 1,1 -1,0 3,2 NNE 6,4 1015,5 86 -
00:34 1,1 -1,0 6,4 NNE 6,4 1015,1 86 -
00:38 1,0 -0,9   Calm 8,0 1015,1 87 -
00:44 1,1 -0,8 6,4 North 9,7 1015,1 87 -
00:48 1,1 -0,8 13,0 ENE 14,5 1015,1 87 -
00:54 1,3 -0,8 3,2 NNW 12,9 1015,1 86 -
00:58 1,3 -0,9 1,4 NE 11,3 1015,1 85 -
01:04 1,2 -1,0 7,9 NE 12,9 1015,1 85 -
01:08 1,2 -1,0 4,7 NNE 11,3 1015,1 85 -
01:14 1,2 -1,0 7,9 NE 14,5 1015,1 85 -
01:18 1,3 -0,9 3,2 NNE 12,9 1015,1 85 -
01:24 1,3 -1,1 4,7 North 11,3 1015,1 84 -
01:28 1,3 -1,1 7,9 NE 8,0 1015,1 84 -
01:32 1,4 -1,0 4,7 NE 12,9 1015,1 84 -
01:38 1,3 -1,1 3,2 NE 9,7 1015,1 84 -
01:44 1,2 -1,0 9,7 North 11,3 1014,8 85 -
01:48 1,2 -1,0 4,7 NNE 12,9 1014,8 85 -
Daily Summary for Monday 19 November 2018
Time Temp. ( °C ) Dew pt. ( °C ) Wind ( km/h ) from Gust ( km/h ) Pressure ( hPa ) Humid.( % ) Rainrate ( cm )
High1,7 -0,7 13,0 NE ( 33/109 ) 14,5 1016,1 87 -
Average1,2 -1,0 5,0 NE #6/22 10,3 1015,3 85 -
Low1,0 -1,1 -   4,8 1014,8 84 -
Daily Tabular details for Monday 19 November 2018
Time Temp. ( °C ) Dew pt. ( °C ) Wind ( km/h ) from Gust ( km/h ) Pressure ( hPa ) Humid.( % ) Rainrate ( cm )
00:04 1,7 -0,7 1,4 ENE 6,4 1016,1 84 -
00:08 1,4 -0,8 4,7 North 11,3 1016,1 85 -
00:14 1,2 -1,0   Calm 4,8 1016,1 85 -
00:18 1,1 -1,0 6,4 NNW 6,4 1015,8 86 -
00:24 1,1 -1,0 4,7 North 11,3 1015,5 86 -
00:28 1,1 -1,0 3,2 NNE 6,4 1015,5 86 -
00:34 1,1 -1,0 6,4 NNE 6,4 1015,1 86 -
00:38 1,0 -0,9   Calm 8,0 1015,1 87 -
00:44 1,1 -0,8 6,4 North 9,7 1015,1 87 -
00:48 1,1 -0,8 13,0 ENE 14,5 1015,1 87 -
00:54 1,3 -0,8 3,2 NNW 12,9 1015,1 86 -
00:58 1,3 -0,9 1,4 NE 11,3 1015,1 85 -
01:04 1,2 -1,0 7,9 NE 12,9 1015,1 85 -
01:08 1,2 -1,0 4,7 NNE 11,3 1015,1 85 -
01:14 1,2 -1,0 7,9 NE 14,5 1015,1 85 -
01:18 1,3 -0,9 3,2 NNE 12,9 1015,1 85 -
01:24 1,3 -1,1 4,7 North 11,3 1015,1 84 -
01:28 1,3 -1,1 7,9 NE 8,0 1015,1 84 -
01:32 1,4 -1,0 4,7 NE 12,9 1015,1 84 -
01:38 1,3 -1,1 3,2 NE 9,7 1015,1 84 -
01:44 1,2 -1,0 9,7 North 11,3 1014,8 85 -
01:48 1,2 -1,0 4,7 NNE 12,9 1014,8 85 -

Download your copy of this data-set  here

Our weather-data as stored at Weather Underground. Script developed by Jim McMurry. Adapted for the template by Leuven-Template.eu

You find our weather info also at:

Weather Underground

Equipment we use:

Weather-station
Davis Vue

Weather-program
Meteobridge

Weather-server
Raspberry PI 2 B+

Provider
1 and 1

Davis Vue

Meteobridge

Raspberry PI 2 B+

1 and 1